Cost, Texas
Current Conditions -  °F | °C
As of 11:15 AM on Friday 28 Nov 2014 (Local Time) from KT20 Reporting Station
Clear Clear  
Wind Chill: 68°   Ceiling: Unl
Heat Index: 68°   Visibility: 10mi
Dew Point: 56°   Wind: 12mph
Humidity: 65%   Direction: 220°SW
Pressure: 30.28"   Gusts: NA
Location:  29.44°N, 97.53°W
Report Text: KT20 281715Z AUTO 22010KT 10SM CLR 20/13 A3028 RMK AO2 T01980131
Loading
Personal Weather Stations






























Interactive Weather Map New forecast layout! Learn more

10-Day Weather Forecast

Advertisements
Track Severe Weather on mobile